Time;durP1;ratioP1;P1;durP2;ratioP2;P2;SDS_P1;SDS_P2;PMS_P1;PMS_P2;Temp;Humidity;BMP_temperature;BMP_pressure;BME280_temperature;BME280_humidity;BME280_pressure;Samples;Min_cycle;Max_cycle;Signal;HPM_P1;HPM_P2
2022/03/08 00:00:00;;;;;;;21.70;20.33;;;0.00;2.70;;;;;;4953500;28;20206;-72
2022/03/08 00:02:25;;;;;;;22.27;20.73;;;0.00;2.70;;;;;;4953636;28;20414;-72
2022/03/08 00:04:51;;;;;;;22.60;20.77;;;0.00;2.60;;;;;;4952366;29;20430;-72
2022/03/08 00:07:17;;;;;;;23.70;21.90;;;-0.20;2.70;;;;;;4956061;28;20177;-72
2022/03/08 00:09:46;;;;;;;22.00;20.40;;;-0.20;2.90;;;;;;4957432;28;20267;-72
2022/03/08 00:12:11;;;;;;;22.35;20.45;;;-0.20;3.10;;;;;;4957218;28;20237;-68
2022/03/08 00:14:37;;;;;;;21.17;19.80;;;0.00;2.40;;;;;;4957320;28;20214;-71
2022/03/08 00:17:03;;;;;;;20.47;19.03;;;0.10;2.30;;;;;;4956982;28;20656;-72
2022/03/08 00:19:29;;;;;;;19.13;17.92;;;0.10;2.20;;;;;;4957075;29;20606;-72
2022/03/08 00:21:55;;;;;;;20.77;19.37;;;0.10;1.80;;;;;;4957430;28;20198;-73
2022/03/08 00:24:20;;;;;;;21.58;20.05;;;0.10;1.60;;;;;;4957416;28;20187;-73
2022/03/08 00:26:46;;;;;;;20.43;19.07;;;0.00;2.30;;;;;;4957056;28;20171;-72
2022/03/08 00:29:12;;;;;;;21.37;19.67;;;0.00;1.80;;;;;;4957062;28;20220;-72
2022/03/08 00:31:37;;;;;;;20.47;19.17;;;0.10;1.90;;;;;;4956988;28;20207;-72
2022/03/08 00:34:04;;;;;;;20.63;19.17;;;0.00;1.50;;;;;;4956998;28;20855;-72
2022/03/08 00:36:31;;;;;;;21.08;19.33;;;0.10;1.10;;;;;;4956653;28;20550;-72
2022/03/08 00:38:56;;;;;;;20.83;18.90;;;0.20;1.20;;;;;;4956826;28;20175;-72
2022/03/08 00:41:22;;;;;;;20.70;19.17;;;0.30;1.00;;;;;;4956676;28;20598;-72
2022/03/08 00:43:48;;;;;;;19.95;18.33;;;0.30;1.00;;;;;;4956748;28;20178;-70
2022/03/08 00:46:15;;;;;;;21.00;19.17;;;0.30;1.30;;;;;;4956741;28;20179;-72
2022/03/08 00:48:41;;;;;;;21.63;19.95;;;0.40;1.00;;;;;;4956418;28;20198;-72
2022/03/08 00:51:07;;;;;;;19.40;18.20;;;0.40;1.00;;;;;;4956436;28;20247;-74
2022/03/08 00:53:32;;;;;;;17.97;16.80;;;0.40;1.00;;;;;;4956575;28;20830;-72
2022/03/08 00:55:58;;;;;;;19.57;18.37;;;0.40;1.00;;;;;;4956529;28;20182;-72
2022/03/08 00:58:23;;;;;;;18.80;17.37;;;0.40;1.00;;;;;;4956178;28;20543;-72
2022/03/08 01:00:49;;;;;;;20.53;19.30;;;0.40;1.00;;;;;;4956261;28;20212;-73
2022/03/08 01:03:14;;;;;;;18.20;17.10;;;0.40;1.00;;;;;;4956432;28;20204;-71
2022/03/08 01:05:40;;;;;;;19.67;18.10;;;0.20;1.00;;;;;;4956313;28;20186;-72
2022/03/08 01:08:06;;;;;;;20.00;18.70;;;0.20;1.00;;;;;;4956112;28;20181;-72
2022/03/08 01:10:32;;;;;;;18.30;17.20;;;0.30;1.00;;;;;;4956155;28;20201;-72
2022/03/08 01:12:58;;;;;;;19.92;18.45;;;0.20;1.00;;;;;;4956223;28;20422;-72
2022/03/08 01:15:25;;;;;;;19.90;18.73;;;0.20;1.50;;;;;;4956143;28;20215;-73
2022/03/08 01:17:52;;;;;;;21.15;19.60;;;0.20;1.00;;;;;;4954604;28;20551;-73
2022/03/08 01:20:18;;;;;;;19.38;17.98;;;0.10;1.00;;;;;;4955918;28;20740;-71
2022/03/08 01:22:44;;;;;;;19.10;17.67;;;0.10;1.30;;;;;;4956062;28;20183;-73
2022/03/08 01:25:12;;;;;;;20.30;18.30;;;0.20;1.70;;;;;;4955907;28;20189;-71
2022/03/08 01:27:38;;;;;;;19.40;18.10;;;0.10;1.50;;;;;;4955744;28;20272;-72
2022/03/08 01:30:06;;;;;;;19.03;17.80;;;0.10;1.40;;;;;;4954620;29;20275;-71
2022/03/08 01:32:31;;;;;;;20.85;19.45;;;0.10;1.50;;;;;;4955844;28;20430;-71
2022/03/08 01:34:57;;;;;;;18.40;17.00;;;-0.10;1.80;;;;;;4955900;28;20562;-71
2022/03/08 01:37:22;;;;;;;19.67;18.27;;;-0.10;1.40;;;;;;4955471;28;20179;-71
2022/03/08 01:39:48;;;;;;;17.93;16.63;;;-0.10;1.70;;;;;;4955634;28;20203;-72
2022/03/08 01:42:16;;;;;;;17.27;16.17;;;0.00;1.20;;;;;;4955627;28;20194;-71
2022/03/08 01:44:46;;;;;;;17.02;16.13;;;0.00;1.30;;;;;;4955636;28;20214;-71
2022/03/08 01:47:14;;;;;;;20.67;19.13;;;-0.10;1.30;;;;;;4954336;29;20183;-71
2022/03/08 01:49:39;;;;;;;18.48;17.10;;;-0.20;1.70;;;;;;4955503;28;20720;-71
2022/03/08 01:52:06;;;;;;;18.17;16.90;;;-0.30;1.60;;;;;;4954131;29;20226;-72
2022/03/08 01:54:32;;;;;;;18.15;16.95;;;-0.30;1.90;;;;;;4955409;28;20194;-71
2022/03/08 01:56:57;;;;;;;18.30;16.90;;;-0.30;2.10;;;;;;4955210;28;20595;-70
2022/03/08 01:59:23;;;;;;;21.00;19.40;;;-0.40;1.90;;;;;;4955416;28;20233;-72
2022/03/08 02:01:48;;;;;;;17.37;16.40;;;-0.50;1.90;;;;;;4955306;28;20198;-72
2022/03/08 02:04:15;;;;;;;17.90;16.80;;;-0.30;1.90;;;;;;4955306;28;20557;-71
2022/03/08 02:06:44;;;;;;;18.23;17.02;;;-0.40;1.60;;;;;;4955080;28;20179;-73
2022/03/08 02:09:10;;;;;;;18.98;17.77;;;-0.40;2.50;;;;;;4955213;28;20185;-70
2022/03/08 02:11:36;;;;;;;21.83;20.30;;;-0.50;2.90;;;;;;4955140;29;20194;-71
2022/03/08 02:14:02;;;;;;;20.90;19.23;;;-0.80;3.50;;;;;;4955136;28;20190;-72
2022/03/08 02:16:28;;;;;;;19.65;18.45;;;-0.80;3.50;;;;;;4954940;28;20432;-71
2022/03/08 02:18:53;;;;;;;19.90;18.70;;;-0.80;4.00;;;;;;4954973;28;20182;-71
2022/03/08 02:21:18;;;;;;;19.63;18.37;;;-0.80;3.90;;;;;;4954911;28;20276;-71
2022/03/08 02:23:44;;;;;;;19.23;18.10;;;-0.90;4.40;;;;;;4954950;28;20178;-70
2022/03/08 02:26:09;;;;;;;20.00;18.77;;;-0.80;4.40;;;;;;4954910;28;20520;-72
2022/03/08 02:28:35;;;;;;;20.80;19.13;;;-0.90;4.30;;;;;;4954307;28;20197;-72
2022/03/08 02:31:01;;;;;;;18.73;17.50;;;-1.00;4.90;;;;;;4954763;28;20225;-71
2022/03/08 02:33:27;;;;;;;20.17;18.87;;;-1.10;5.10;;;;;;4954712;28;20555;-72
2022/03/08 02:35:52;;;;;;;20.43;19.00;;;-1.30;5.30;;;;;;4954688;28;20190;-71
2022/03/08 02:38:18;;;;;;;20.47;18.97;;;-1.40;6.00;;;;;;4954432;28;20505;-71
2022/03/08 02:40:43;;;;;;;19.87;18.57;;;-1.40;6.40;;;;;;4953157;28;20248;-71
2022/03/08 02:43:11;;;;;;;18.83;17.50;;;-1.50;6.40;;;;;;4954612;28;20250;-71
2022/03/08 02:45:37;;;;;;;20.67;19.27;;;-1.50;6.70;;;;;;4954857;28;20233;-70
2022/03/08 02:48:03;;;;;;;21.25;19.65;;;-1.60;7.20;;;;;;4954209;28;20178;-71
2022/03/08 02:50:29;;;;;;;22.08;20.48;;;-1.70;7.30;;;;;;4954555;28;20690;-70
2022/03/08 02:52:56;;;;;;;21.93;20.40;;;-1.70;7.30;;;;;;4954731;28;20225;-70
2022/03/08 02:55:25;;;;;;;21.23;19.58;;;-1.70;7.60;;;;;;4954387;28;20333;-70
2022/03/08 02:57:52;;;;;;;21.15;19.65;;;-1.60;7.40;;;;;;4954110;28;20649;-69
2022/03/08 03:00:19;;;;;;;19.95;18.65;;;-1.80;7.60;;;;;;4954316;28;20260;-70
2022/03/08 03:02:45;;;;;;;20.63;19.17;;;-1.70;6.50;;;;;;4954316;28;20574;-70
2022/03/08 03:05:11;;;;;;;21.20;19.70;;;-1.80;7.20;;;;;;4954181;28;20185;-71
2022/03/08 03:07:38;;;;;;;21.02;19.25;;;-1.80;7.20;;;;;;4953979;28;20246;-70
2022/03/08 03:10:09;;;;;;;19.65;18.20;;;-1.90;7.20;;;;;;4954151;28;20190;-70
2022/03/08 03:12:35;;;;;;;20.55;19.20;;;-1.90;7.20;;;;;;4954252;28;20188;-71
2022/03/08 03:15:01;;;;;;;21.80;20.00;;;-2.00;7.60;;;;;;4954127;28;20260;-71
2022/03/08 03:17:26;;;;;;;19.53;18.20;;;-1.90;7.20;;;;;;4953791;28;20553;-71
2022/03/08 03:19:52;;;;;;;22.10;20.07;;;-2.00;7.70;;;;;;4953922;28;20202;-70
2022/03/08 03:22:18;;;;;;;20.33;18.83;;;-2.10;8.10;;;;;;4954129;28;20277;-70
2022/03/08 03:24:43;;;;;;;21.13;19.53;;;-2.20;8.20;;;;;;4954009;28;20173;-70
2022/03/08 03:27:09;;;;;;;19.93;18.63;;;-2.20;8.30;;;;;;4953660;28;20183;-71
2022/03/08 03:29:34;;;;;;;19.90;18.60;;;-2.10;8.50;;;;;;4954029;28;20181;-70
2022/03/08 03:32:00;;;;;;;20.07;18.63;;;-2.20;8.30;;;;;;4953803;28;20212;-69
2022/03/08 03:34:25;;;;;;;19.10;17.77;;;-2.10;7.90;;;;;;4953811;28;20205;-70
2022/03/08 03:36:51;;;;;;;19.80;18.50;;;-2.30;8.30;;;;;;4953617;28;20188;-71
2022/03/08 03:39:16;;;;;;;20.27;18.57;;;-2.30;8.20;;;;;;4953793;28;20202;-70
2022/03/08 03:41:42;;;;;;;19.90;18.40;;;-2.20;8.00;;;;;;4955705;28;20252;-70
2022/03/08 03:44:07;;;;;;;20.07;18.77;;;-2.10;8.10;;;;;;4957831;28;20254;-70
2022/03/08 03:46:33;;;;;;;21.10;19.80;;;-2.10;8.10;;;;;;4957433;28;20264;-72
2022/03/08 03:48:58;;;;;;;19.80;18.20;;;-2.30;8.20;;;;;;4957689;28;20244;-70
2022/03/08 03:51:24;;;;;;;16.43;15.53;;;-2.30;7.90;;;;;;4956725;28;20214;-71
2022/03/08 03:53:50;;;;;;;16.23;15.33;;;-2.10;7.10;;;;;;4956241;28;20190;-71
2022/03/08 03:56:15;;;;;;;16.30;15.30;;;-1.80;6.70;;;;;;4956261;28;20188;-72
2022/03/08 03:58:41;;;;;;;17.03;16.13;;;-1.50;5.90;;;;;;4956071;28;20205;-71
2022/03/08 04:01:06;;;;;;;15.87;15.07;;;-1.40;5.60;;;;;;4956105;28;20625;-71
2022/03/08 04:03:32;;;;;;;15.67;14.87;;;-1.30;5.60;;;;;;4956108;28;20182;-70
2022/03/08 04:05:57;;;;;;;17.13;15.90;;;-1.30;5.40;;;;;;4956174;28;20236;-72
2022/03/08 04:08:23;;;;;;;17.33;16.33;;;-1.30;5.20;;;;;;4955940;28;20541;-71
2022/03/08 04:10:50;;;;;;;16.23;15.43;;;-1.20;5.30;;;;;;4956070;28;20212;-70
2022/03/08 04:13:17;;;;;;;16.95;16.05;;;-1.20;5.70;;;;;;4956082;28;20432;-72
2022/03/08 04:15:44;;;;;;;16.55;15.48;;;-1.20;5.70;;;;;;4955956;28;20178;-71
2022/03/08 04:18:09;;;;;;;15.95;15.15;;;-1.20;5.60;;;;;;4955721;28;20189;-71
2022/03/08 04:20:35;;;;;;;16.70;15.90;;;-1.10;5.50;;;;;;4955777;29;20205;-70
2022/03/08 04:23:01;;;;;;;15.50;14.77;;;-1.20;5.60;;;;;;4955877;28;20197;-72
2022/03/08 04:25:27;;;;;;;16.27;15.27;;;-1.20;6.10;;;;;;4954611;29;20426;-72
2022/03/08 04:27:52;;;;;;;16.73;15.93;;;-1.20;5.90;;;;;;4955414;28;20174;-72
2022/03/08 04:30:18;;;;;;;16.43;15.40;;;-1.20;5.70;;;;;;4955668;28;20436;-71
2022/03/08 04:32:44;;;;;;;16.80;16.00;;;-1.30;6.40;;;;;;4956182;28;20318;-71
2022/03/08 04:35:09;;;;;;;17.37;16.37;;;-1.20;6.40;;;;;;4954680;29;20210;-70
2022/03/08 04:37:35;;;;;;;16.17;15.03;;;-1.20;6.50;;;;;;4954192;28;20178;-71
2022/03/08 04:40:03;;;;;;;16.23;15.43;;;-1.10;6.40;;;;;;4955415;28;20823;-70
2022/03/08 04:42:28;;;;;;;15.95;15.20;;;-1.00;6.70;;;;;;4955706;28;20182;-72
2022/03/08 04:44:54;;;;;;;16.80;15.80;;;-1.00;6.80;;;;;;4955640;28;20182;-71
2022/03/08 04:47:20;;;;;;;19.00;17.47;;;-0.90;6.80;;;;;;4955200;28;20178;-71
2022/03/08 04:49:45;;;;;;;16.50;15.65;;;-0.80;6.70;;;;;;4955488;28;20644;-71
2022/03/08 04:52:11;;;;;;;16.58;15.57;;;-0.70;6.60;;;;;;4927318;23;1056916;-70
2022/03/08 04:54:36;;;;;;;16.93;15.83;;;-0.60;6.60;;;;;;4952759;28;20494;-73
2022/03/08 04:57:03;;;;;;;18.40;17.40;;;-0.60;6.60;;;;;;4952424;28;20187;-72
2022/03/08 04:59:28;;;;;;;17.08;16.08;;;-0.40;6.60;;;;;;4937543;29;20571;-71
2022/03/08 05:01:54;;;;;;;17.30;16.30;;;-0.50;6.70;;;;;;4950293;29;20186;-72
2022/03/08 05:04:21;;;;;;;16.90;16.10;;;-0.50;6.80;;;;;;4956675;28;20237;-71
2022/03/08 05:06:47;;;;;;;16.15;15.25;;;-0.40;6.50;;;;;;4956258;28;20197;-71
2022/03/08 05:09:12;;;;;;;16.65;15.75;;;-0.30;6.80;;;;;;4956655;28;20186;-71
2022/03/08 05:11:38;;;;;;;17.20;16.20;;;-0.30;6.60;;;;;;4956660;28;20206;-71
2022/03/08 05:14:04;;;;;;;17.50;16.40;;;-0.20;6.70;;;;;;4956799;28;20525;-72
2022/03/08 05:16:29;;;;;;;16.70;15.70;;;-0.20;6.60;;;;;;4956554;28;20244;-71
2022/03/08 05:18:55;;;;;;;17.50;16.27;;;-0.40;6.70;;;;;;4956179;29;20789;-71
2022/03/08 05:21:20;;;;;;;16.67;15.77;;;-0.40;7.40;;;;;;4956295;29;20620;-72
2022/03/08 05:23:46;;;;;;;17.30;16.40;;;-0.30;7.10;;;;;;4971004;28;20236;-71
2022/03/08 05:26:11;;;;;;;16.57;15.53;;;-0.30;7.30;;;;;;4956199;29;20176;-73
2022/03/08 05:28:37;;;;;;;16.33;15.53;;;-0.30;7.50;;;;;;4970946;28;20242;-71
2022/03/08 05:31:03;;;;;;;17.20;16.10;;;-0.30;8.00;;;;;;4956003;28;20198;-71
2022/03/08 05:33:28;;;;;;;16.27;15.27;;;-0.30;8.20;;;;;;4956515;28;20179;-70
2022/03/08 05:35:54;;;;;;;16.67;15.77;;;-0.30;8.20;;;;;;4956498;29;20189;-71
2022/03/08 05:38:19;;;;;;;16.10;15.07;;;-0.30;8.20;;;;;;4971124;28;20186;-71
2022/03/08 05:40:45;;;;;;;16.60;15.70;;;-0.30;8.20;;;;;;4957295;29;20222;-70
2022/03/08 05:43:11;;;;;;;17.00;15.90;;;-0.20;8.30;;;;;;4956388;28;20257;-70
2022/03/08 05:45:36;;;;;;;16.50;15.70;;;-0.20;8.50;;;;;;4956371;28;20179;-73
2022/03/08 05:48:02;;;;;;;16.83;15.87;;;-0.20;8.30;;;;;;4957144;28;20415;-73
2022/03/08 05:50:27;;;;;;;18.80;17.40;;;-0.20;8.30;;;;;;4957133;29;20201;-71
2022/03/08 05:52:53;;;;;;;16.80;15.80;;;-0.20;8.70;;;;;;4960740;28;20270;-72
2022/03/08 05:55:18;;;;;;;17.47;16.37;;;-0.20;8.50;;;;;;4957441;28;20186;-70
2022/03/08 05:57:44;;;;;;;17.97;16.87;;;-0.20;8.30;;;;;;4956084;28;20185;-70
2022/03/08 06:00:10;;;;;;;16.20;15.37;;;-0.20;8.30;;;;;;4955900;29;20723;-69
2022/03/08 06:02:36;;;;;;;16.77;15.88;;;-0.20;8.60;;;;;;4955490;29;20273;-71
2022/03/08 06:05:02;;;;;;;16.80;15.90;;;-0.20;9.50;;;;;;4955442;28;20202;-71
2022/03/08 06:07:27;;;;;;;16.77;15.67;;;-0.10;8.90;;;;;;4955191;29;20185;-71
2022/03/08 06:09:53;;;;;;;18.33;16.90;;;-0.10;9.40;;;;;;4955410;28;20921;-71
2022/03/08 06:12:19;;;;;;;16.77;15.70;;;0.00;8.40;;;;;;4954131;29;20576;-70
2022/03/08 06:14:44;;;;;;;16.07;15.07;;;0.00;8.50;;;;;;4955098;29;20418;-70
2022/03/08 06:17:10;;;;;;;16.07;15.10;;;0.10;8.50;;;;;;4955404;28;20189;-74
2022/03/08 06:19:36;;;;;;;17.60;16.50;;;0.20;8.50;;;;;;4955478;28;20265;-71
2022/03/08 06:22:02;;;;;;;18.73;17.23;;;0.20;8.60;;;;;;4955144;29;20681;-71
2022/03/08 06:24:28;;;;;;;17.15;16.20;;;0.20;8.60;;;;;;4955309;28;20643;-71
2022/03/08 06:26:53;;;;;;;17.90;16.90;;;0.20;8.60;;;;;;4954796;29;20183;-71
2022/03/08 06:29:19;;;;;;;18.57;17.27;;;0.30;8.60;;;;;;4954973;28;20330;-71
2022/03/08 06:31:44;;;;;;;18.33;17.03;;;0.30;8.60;;;;;;4955279;28;20201;-71
2022/03/08 06:34:10;;;;;;;19.30;18.10;;;0.60;8.80;;;;;;4955569;28;20563;-70
2022/03/08 06:36:36;;;;;;;18.20;16.90;;;0.80;7.70;;;;;;4953841;29;20550;-71
2022/03/08 06:39:03;;;;;;;17.52;16.42;;;1.10;7.90;;;;;;4954007;29;20188;-71
2022/03/08 06:41:29;;;;;;;19.30;18.02;;;1.50;6.90;;;;;;4955950;29;20297;-71
2022/03/08 06:43:54;;;;;;;18.33;17.30;;;1.80;6.30;;;;;;4955217;28;20277;-71
2022/03/08 06:46:20;;;;;;;18.77;17.23;;;2.10;5.40;;;;;;4955123;28;20413;-70
2022/03/08 06:48:45;;;;;;;17.30;16.30;;;2.20;5.40;;;;;;4955019;29;20176;-72
2022/03/08 06:51:11;;;;;;;18.70;17.50;;;2.30;5.50;;;;;;4955480;28;20223;-70
2022/03/08 06:53:37;;;;;;;19.17;17.80;;;2.10;5.40;;;;;;4954929;29;20174;-71
2022/03/08 06:56:02;;;;;;;16.57;15.67;;;2.00;5.80;;;;;;4955104;28;20184;-71
2022/03/08 06:58:28;;;;;;;19.30;18.20;;;1.70;5.80;;;;;;4954800;29;20260;-69
2022/03/08 07:00:54;;;;;;;18.40;17.23;;;1.80;6.30;;;;;;4953323;29;20227;-70
2022/03/08 07:03:20;;;;;;;17.90;16.90;;;1.80;6.50;;;;;;4955016;28;20181;-71
2022/03/08 07:05:46;;;;;;;18.33;17.20;;;1.60;6.80;;;;;;4969924;28;20181;-69
2022/03/08 07:08:12;;;;;;;19.25;18.05;;;1.70;6.80;;;;;;4954846;28;20173;-70
2022/03/08 07:10:37;;;;;;;17.73;16.70;;;1.60;6.80;;;;;;4955040;29;20220;-69
2022/03/08 07:13:03;;;;;;;17.77;16.47;;;1.70;6.70;;;;;;4954634;28;20475;-70
2022/03/08 07:15:29;;;;;;;18.43;17.30;;;1.60;7.00;;;;;;4953639;28;20188;-70
2022/03/08 07:17:54;;;;;;;18.77;17.50;;;1.70;7.20;;;;;;4954354;28;20185;-71
2022/03/08 07:20:20;;;;;;;18.50;17.20;;;1.60;7.30;;;;;;4954375;28;20264;-70
2022/03/08 07:22:45;;;;;;;17.33;16.40;;;1.70;7.30;;;;;;4954410;28;20180;-70
2022/03/08 07:25:11;;;;;;;18.13;17.00;;;1.60;7.40;;;;;;4952877;29;20178;-72
2022/03/08 07:27:37;;;;;;;19.13;17.50;;;1.80;7.00;;;;;;4953857;29;20609;-71
2022/03/08 07:30:05;;;;;;;17.35;16.35;;;1.80;7.00;;;;;;4954109;29;20913;-71
2022/03/08 07:32:31;;;;;;;19.17;17.80;;;1.80;7.00;;;;;;4952532;29;20206;-71
2022/03/08 07:34:57;;;;;;;18.60;17.40;;;1.80;7.00;;;;;;4954072;28;20181;-71
2022/03/08 07:37:23;;;;;;;20.35;18.98;;;1.90;6.80;;;;;;4955379;28;20181;-71
2022/03/08 07:39:49;;;;;;;19.90;18.43;;;1.80;7.80;;;;;;4953356;28;20277;-72
2022/03/08 07:42:14;;;;;;;18.23;17.03;;;2.00;6.80;;;;;;4951198;28;20863;-70
2022/03/08 07:44:40;;;;;;;19.37;18.07;;;2.10;7.20;;;;;;4950654;28;20193;-75
2022/03/08 07:47:07;;;;;;;17.50;16.40;;;2.20;7.00;;;;;;4947577;29;20285;-70
2022/03/08 07:49:32;;;;;;;18.02;16.75;;;2.30;6.80;;;;;;4945381;28;20288;-67
2022/03/08 07:51:58;;;;;;;18.67;17.50;;;2.50;6.30;;;;;;4945034;29;20273;-68
2022/03/08 07:54:23;;;;;;;16.97;16.10;;;2.70;5.80;;;;;;4953778;28;20182;-67
2022/03/08 07:56:49;;;;;;;18.00;17.00;;;2.70;5.80;;;;;;4953256;29;20207;-69
2022/03/08 07:59:15;;;;;;;18.00;16.83;;;2.70;5.80;;;;;;4952711;28;20247;-69
2022/03/08 08:01:40;;;;;;;17.20;16.20;;;2.90;5.90;;;;;;4953473;28;20213;-68
2022/03/08 08:04:06;;;;;;;18.33;17.13;;;3.00;4.90;;;;;;4954026;28;20182;-69
2022/03/08 08:06:32;;;;;;;17.87;16.80;;;3.00;4.90;;;;;;4953629;29;20269;-69
2022/03/08 08:08:57;;;;;;;17.40;16.37;;;3.10;4.50;;;;;;4953730;29;20644;-68
2022/03/08 08:11:23;;;;;;;18.70;17.33;;;3.00;4.70;;;;;;4953817;29;20550;-68
2022/03/08 08:13:49;;;;;;;17.40;16.23;;;3.10;3.80;;;;;;4952444;29;20186;-68
2022/03/08 08:16:17;;;;;;;17.85;16.95;;;3.20;4.00;;;;;;4953380;28;20182;-68
2022/03/08 08:18:43;;;;;;;17.88;16.63;;;3.40;3.40;;;;;;4952144;28;20220;-68
2022/03/08 08:21:09;;;;;;;17.45;16.35;;;3.40;2.90;;;;;;4953498;28;20241;-68
2022/03/08 08:23:34;;;;;;;17.00;16.07;;;3.40;3.20;;;;;;4952008;29;20209;-69
2022/03/08 08:26:00;;;;;;;17.70;16.63;;;3.40;2.90;;;;;;4952138;29;20181;-68
2022/03/08 08:28:25;;;;;;;17.90;16.50;;;3.40;2.60;;;;;;4955647;28;20212;-67
2022/03/08 08:30:51;;;;;;;17.63;16.47;;;3.40;3.10;;;;;;4953189;28;20309;-69
2022/03/08 08:33:16;;;;;;;17.73;16.63;;;3.60;3.00;;;;;;4953185;28;20197;-70
2022/03/08 08:35:42;;;;;;;17.37;16.37;;;3.60;2.60;;;;;;4953110;29;20205;-70
2022/03/08 08:38:08;;;;;;;17.37;16.37;;;3.70;2.00;;;;;;4956144;29;20668;-70
2022/03/08 08:40:36;;;;;;;17.10;16.20;;;3.80;2.00;;;;;;4940865;28;20205;-71
2022/03/08 08:43:05;;;;;;;16.50;15.57;;;3.80;2.00;;;;;;4937011;29;20633;-71
2022/03/08 08:45:31;;;;;;;17.13;16.23;;;3.90;2.10;;;;;;4937490;29;20209;-70
2022/03/08 08:47:57;;;;;;;17.20;16.30;;;3.80;2.00;;;;;;4946413;29;20731;-70
2022/03/08 08:50:22;;;;;;;18.80;17.33;;;3.80;1.50;;;;;;4953679;29;20206;-70
2022/03/08 08:52:48;;;;;;;17.20;16.20;;;3.80;1.10;;;;;;4955784;29;20273;-70
2022/03/08 08:55:13;;;;;;;16.10;15.10;;;3.80;1.20;;;;;;4956121;29;20210;-70
2022/03/08 08:57:39;;;;;;;16.67;15.77;;;3.80;1.60;;;;;;4954642;29;20190;-70
2022/03/08 09:00:07;;;;;;;18.40;17.20;;;4.00;1.70;;;;;;4956149;28;20214;-70
2022/03/08 09:02:33;;;;;;;17.80;16.90;;;4.10;1.00;;;;;;4956164;28;20460;-69
2022/03/08 09:04:58;;;;;;;17.70;16.67;;;4.00;1.00;;;;;;4956115;28;20178;-69
2022/03/08 09:07:24;;;;;;;17.73;16.63;;;4.10;1.00;;;;;;4956010;28;20174;-69
2022/03/08 09:09:50;;;;;;;17.27;16.27;;;4.10;1.00;;;;;;4956506;28;20182;-72
2022/03/08 09:12:16;;;;;;;16.03;15.23;;;4.20;1.00;;;;;;4956178;28;20723;-69
2022/03/08 09:14:42;;;;;;;17.40;16.37;;;4.20;1.00;;;;;;4953986;28;20425;-69
2022/03/08 09:17:08;;;;;;;17.98;16.88;;;4.30;1.00;;;;;;4954261;28;20505;-71
2022/03/08 09:19:34;;;;;;;17.67;16.37;;;4.30;1.00;;;;;;4954792;29;20205;-71
2022/03/08 09:21:59;;;;;;;16.23;15.43;;;4.30;1.00;;;;;;4955901;28;20791;-69
2022/03/08 09:24:25;;;;;;;16.33;15.43;;;4.40;1.00;;;;;;4949032;28;20648;-69
2022/03/08 09:26:50;;;;;;;16.83;15.93;;;4.50;1.00;;;;;;4936571;29;20183;-69
2022/03/08 09:29:16;;;;;;;16.40;15.60;;;4.60;1.00;;;;;;4935461;29;20190;-70
2022/03/08 09:31:41;;;;;;;16.63;15.80;;;4.70;1.00;;;;;;4936665;29;20235;-69
2022/03/08 09:34:07;;;;;;;17.17;16.07;;;4.80;1.00;;;;;;4944769;29;20186;-69
2022/03/08 09:36:32;;;;;;;17.30;16.40;;;4.90;1.00;;;;;;4955407;28;20238;-70
2022/03/08 09:38:58;;;;;;;16.77;15.97;;;5.00;1.00;;;;;;4954541;28;20178;-69
2022/03/08 09:41:25;;;;;;;17.63;16.43;;;5.00;1.00;;;;;;4955549;28;20222;-70
2022/03/08 09:43:50;;;;;;;17.55;16.67;;;5.20;1.00;;;;;;4954797;29;20178;-70
2022/03/08 09:46:16;;;;;;;16.40;15.60;;;5.20;1.00;;;;;;4955659;28;20181;-69
2022/03/08 09:48:42;;;;;;;16.40;15.50;;;5.30;1.00;;;;;;4955219;28;20323;-69
2022/03/08 09:51:08;;;;;;;17.70;16.40;;;5.30;1.00;;;;;;4953740;28;20256;-69
2022/03/08 09:53:35;;;;;;;17.80;16.70;;;5.30;1.00;;;;;;4955333;28;20227;-70
2022/03/08 09:56:02;;;;;;;17.00;16.00;;;5.30;1.00;;;;;;4955663;28;20312;-69
2022/03/08 09:58:27;;;;;;;16.45;15.65;;;5.50;1.00;;;;;;4955346;28;20187;-69
2022/03/08 10:00:55;;;;;;;18.17;16.90;;;5.50;1.00;;;;;;4954679;28;20584;-70
2022/03/08 10:03:31;;;;;;;17.30;16.30;;;5.40;1.00;;;;;;4955250;28;20179;-71
2022/03/08 10:05:57;;;;;;;17.08;16.05;;;5.40;1.00;;;;;;4955255;28;20183;-70
2022/03/08 10:08:23;;;;;;;17.43;16.50;;;5.40;1.00;;;;;;4955585;28;20178;-69
2022/03/08 10:11:03;;;;;;;17.63;16.73;;;5.40;1.00;;;;;;4953218;28;20206;-69
2022/03/08 10:13:41;;;;;;;19.08;17.88;;;5.30;1.00;;;;;;4955140;28;20376;-72
2022/03/08 10:16:33;;;;;;;16.73;15.73;;;5.30;1.00;;;;;;4954906;28;20178;-71
2022/03/08 10:19:02;;;;;;;17.08;16.02;;;5.40;1.00;;;;;;4953570;29;20194;-69
2022/03/08 10:21:27;;;;;;;18.33;16.55;;;5.40;1.00;;;;;;4954514;28;20605;-71
2022/03/08 10:23:54;;;;;;;19.07;17.87;;;5.40;1.00;;;;;;4953932;28;20199;-73
2022/03/08 10:26:20;;;;;;;17.25;15.80;;;5.50;1.00;;;;;;4954875;29;20250;-73
2022/03/08 10:28:48;;;;;;;16.25;15.45;;;5.60;1.00;;;;;;4954512;28;20180;-70
2022/03/08 10:31:15;;;;;;;18.00;17.10;;;5.80;1.00;;;;;;4954371;28;20250;-71
2022/03/08 10:33:41;;;;;;;17.73;16.70;;;5.90;1.00;;;;;;4954887;28;20201;-69
2022/03/08 10:36:16;;;;;;;18.23;17.13;;;5.90;1.00;;;;;;4954831;28;20222;-69
2022/03/08 10:39:01;;;;;;;17.60;16.58;;;5.80;1.00;;;;;;4954415;28;20179;-71
2022/03/08 10:41:27;;;;;;;18.00;17.00;;;5.80;1.00;;;;;;4954358;28;20215;-70
2022/03/08 10:43:52;;;;;;;17.47;16.50;;;5.80;1.00;;;;;;4954590;28;20656;-71
2022/03/08 10:46:18;;;;;;;16.63;15.83;;;6.00;1.00;;;;;;4954725;28;20186;-69
2022/03/08 10:48:46;;;;;;;17.77;16.67;;;6.00;1.00;;;;;;4954067;28;20201;-70
2022/03/08 10:51:16;;;;;;;18.00;17.00;;;6.10;1.00;;;;;;4953276;28;20219;-71
2022/03/08 10:53:43;;;;;;;18.90;17.50;;;6.20;1.00;;;;;;4955720;28;20424;-71
2022/03/08 10:56:10;;;;;;;18.63;17.40;;;6.30;1.00;;;;;;4955850;28;20176;-71
2022/03/08 10:58:49;;;;;;;18.67;17.65;;;6.40;1.00;;;;;;4954364;28;20219;-71
2022/03/08 11:01:14;;;;;;;17.40;16.37;;;6.50;1.00;;;;;;4954492;29;20249;-70
2022/03/08 11:03:53;;;;;;;19.03;17.73;;;6.60;1.00;;;;;;4954739;28;20832;-71
2022/03/08 11:06:19;;;;;;;19.00;17.60;;;6.60;1.00;;;;;;4953705;28;20184;-72
2022/03/08 11:08:45;;;;;;;19.20;17.93;;;6.70;1.00;;;;;;4953608;28;20576;-72
2022/03/08 11:11:11;;;;;;;18.13;17.13;;;6.90;1.00;;;;;;4953692;28;20453;-71
2022/03/08 11:13:36;;;;;;;18.77;17.77;;;7.00;1.00;;;;;;4954249;29;20268;-71
2022/03/08 11:16:03;;;;;;;17.70;16.80;;;7.00;1.00;;;;;;4954076;28;20461;-71
2022/03/08 11:18:30;;;;;;;18.93;17.40;;;7.10;1.00;;;;;;4952486;29;20189;-72
2022/03/08 11:20:58;;;;;;;18.10;16.90;;;7.30;1.00;;;;;;4953193;28;20551;-71
2022/03/08 11:23:24;;;;;;;18.37;16.83;;;7.30;1.00;;;;;;4953665;28;20799;-71
2022/03/08 11:25:50;;;;;;;19.37;18.07;;;7.40;1.00;;;;;;4953748;28;20445;-71
2022/03/08 11:28:16;;;;;;;17.50;16.40;;;7.50;1.00;;;;;;4953556;29;20442;-72
2022/03/08 11:30:46;;;;;;;18.23;17.17;;;7.60;1.00;;;;;;4953618;29;20544;-71
2022/03/08 11:33:33;;;;;;;17.67;16.17;;;7.60;1.00;;;;;;4934601;29;20419;-72
2022/03/08 11:36:07;;;;;;;16.70;15.90;;;7.40;1.00;;;;;;4934704;29;20414;-70
2022/03/08 11:38:33;;;;;;;16.80;15.03;;;7.40;1.00;;;;;;4934494;29;20420;-71
2022/03/08 11:40:59;;;;;;;16.80;15.80;;;7.40;1.00;;;;;;4945431;29;20448;-71
2022/03/08 11:43:43;;;;;;;16.63;15.70;;;7.30;1.00;;;;;;4953066;29;20281;-72
2022/03/08 11:46:17;;;;;;;16.60;15.77;;;7.30;1.00;;;;;;4954369;28;20437;-73
2022/03/08 11:48:55;;;;;;;16.30;15.60;;;7.40;1.00;;;;;;4953835;28;20409;-72
2022/03/08 11:51:22;;;;;;;16.90;15.93;;;7.50;1.00;;;;;;4953632;28;20469;-71
2022/03/08 11:53:58;;;;;;;17.47;16.47;;;7.60;1.00;;;;;;4953847;28;20420;-72
2022/03/08 11:56:24;;;;;;;15.37;14.57;;;7.60;1.00;;;;;;4953532;28;20520;-72
2022/03/08 11:58:50;;;;;;;17.00;16.10;;;7.70;1.00;;;;;;4953830;28;20983;-69
2022/03/08 12:01:25;;;;;;;16.43;15.60;;;7.80;1.00;;;;;;4953464;28;20712;-70
2022/03/08 12:03:56;;;;;;;16.50;15.70;;;7.80;1.00;;;;;;4956215;28;20441;-69
2022/03/08 12:06:35;;;;;;;17.27;16.27;;;8.00;1.00;;;;;;4957522;28;20417;-69
2022/03/08 12:09:13;;;;;;;16.53;15.73;;;8.00;1.00;;;;;;4957484;28;20432;-69
2022/03/08 12:11:44;;;;;;;17.63;16.50;;;8.00;1.00;;;;;;4957721;29;20925;-69
2022/03/08 12:14:16;;;;;;;17.27;16.37;;;7.80;1.00;;;;;;4957790;29;20417;-69
2022/03/08 12:16:44;;;;;;;16.63;15.80;;;7.60;1.00;;;;;;4956154;29;21228;-69
2022/03/08 12:19:12;;;;;;;17.07;16.27;;;7.50;1.00;;;;;;4953452;29;20785;-69
2022/03/08 12:21:40;;;;;;;17.90;16.80;;;7.70;1.00;;;;;;4956018;28;20453;-68
2022/03/08 12:24:18;;;;;;;17.10;16.13;;;7.70;1.00;;;;;;4957715;28;20429;-68
2022/03/08 12:26:53;;;;;;;19.60;18.20;;;8.00;1.00;;;;;;4957344;29;20765;-69
2022/03/08 12:29:23;;;;;;;18.37;17.33;;;8.10;1.00;;;;;;4957334;29;20409;-70
2022/03/08 12:31:58;;;;;;;17.83;16.67;;;8.30;1.00;;;;;;4957654;29;20430;-70
2022/03/08 12:34:42;;;;;;;16.93;16.13;;;8.40;1.00;;;;;;4957193;29;20856;-66
2022/03/08 12:37:16;;;;;;;17.60;16.60;;;8.50;1.00;;;;;;4955890;29;20926;-68
2022/03/08 12:40:00;;;;;;;17.83;16.77;;;8.60;1.00;;;;;;4957071;29;20421;-70